sensor_id;sensor_type;location;lat;lon;timestamp;P1;durP1;ratioP1;P2;durP2;ratioP2
68864;SDS011;55898;52.196;4.420;2022-08-25T00:02:24;14.21;;;14.21;;
68864;SDS011;55898;52.196;4.420;2022-08-25T00:04:50;14.98;;;14.98;;
68864;SDS011;55898;52.196;4.420;2022-08-25T00:07:15;15.44;;;15.44;;
68864;SDS011;55898;52.196;4.420;2022-08-25T00:09:41;14.79;;;14.79;;
68864;SDS011;55898;52.196;4.420;2022-08-25T00:12:06;15.20;;;15.20;;
68864;SDS011;55898;52.196;4.420;2022-08-25T00:14:34;15.70;;;15.70;;
68864;SDS011;55898;52.196;4.420;2022-08-25T00:17:01;15.99;;;15.99;;
68864;SDS011;55898;52.196;4.420;2022-08-25T00:19:30;15.26;;;15.26;;
68864;SDS011;55898;52.196;4.420;2022-08-25T00:21:57;15.62;;;15.62;;
68864;SDS011;55898;52.196;4.420;2022-08-25T00:24:23;17.42;;;17.42;;
68864;SDS011;55898;52.196;4.420;2022-08-25T00:26:50;16.41;;;16.41;;
68864;SDS011;55898;52.196;4.420;2022-08-25T00:29:19;15.36;;;15.36;;
68864;SDS011;55898;52.196;4.420;2022-08-25T00:31:46;16.12;;;16.12;;
68864;SDS011;55898;52.196;4.420;2022-08-25T00:34:22;16.07;;;16.07;;
68864;SDS011;55898;52.196;4.420;2022-08-25T00:36:52;16.21;;;16.21;;
68864;SDS011;55898;52.196;4.420;2022-08-25T00:39:19;17.13;;;17.13;;
68864;SDS011;55898;52.196;4.420;2022-08-25T00:41:47;16.22;;;16.22;;
68864;SDS011;55898;52.196;4.420;2022-08-25T00:44:15;15.61;;;15.61;;
68864;SDS011;55898;52.196;4.420;2022-08-25T00:46:52;14.56;;;14.56;;
68864;SDS011;55898;52.196;4.420;2022-08-25T00:54:37;14.67;;;14.67;;
68864;SDS011;55898;52.196;4.420;2022-08-25T00:57:10;15.11;;;15.11;;
68864;SDS011;55898;52.196;4.420;2022-08-25T00:59:39;14.72;;;14.72;;
68864;SDS011;55898;52.196;4.420;2022-08-25T01:02:06;14.93;;;14.93;;
68864;SDS011;55898;52.196;4.420;2022-08-25T01:04:33;14.43;;;14.43;;
68864;SDS011;55898;52.196;4.420;2022-08-25T01:06:59;14.35;;;14.35;;
68864;SDS011;55898;52.196;4.420;2022-08-25T01:09:25;14.91;;;14.91;;
68864;SDS011;55898;52.196;4.420;2022-08-25T01:11:56;14.70;;;14.70;;
68864;SDS011;55898;52.196;4.420;2022-08-25T01:14:22;13.32;;;13.32;;
68864;SDS011;55898;52.196;4.420;2022-08-25T01:16:49;14.14;;;14.14;;
68864;SDS011;55898;52.196;4.420;2022-08-25T01:19:15;13.71;;;13.71;;
68864;SDS011;55898;52.196;4.420;2022-08-25T01:21:46;13.95;;;13.95;;
68864;SDS011;55898;52.196;4.420;2022-08-25T01:27:09;13.73;;;13.73;;
68864;SDS011;55898;52.196;4.420;2022-08-25T01:29:36;14.76;;;14.76;;
68864;SDS011;55898;52.196;4.420;2022-08-25T01:32:03;14.36;;;14.36;;
68864;SDS011;55898;52.196;4.420;2022-08-25T01:34:32;14.84;;;14.84;;
68864;SDS011;55898;52.196;4.420;2022-08-25T01:37:00;14.65;;;14.65;;
68864;SDS011;55898;52.196;4.420;2022-08-25T01:39:26;14.56;;;14.56;;
68864;SDS011;55898;52.196;4.420;2022-08-25T01:42:08;14.36;;;14.36;;
68864;SDS011;55898;52.196;4.420;2022-08-25T01:44:58;15.50;;;15.50;;
68864;SDS011;55898;52.196;4.420;2022-08-25T01:47:23;13.96;;;13.96;;
68864;SDS011;55898;52.196;4.420;2022-08-25T01:49:49;14.68;;;14.68;;
68864;SDS011;55898;52.196;4.420;2022-08-25T01:52:18;15.03;;;15.03;;
68864;SDS011;55898;52.196;4.420;2022-08-25T01:54:48;15.48;;;15.48;;
68864;SDS011;55898;52.196;4.420;2022-08-25T01:57:14;14.55;;;14.55;;
68864;SDS011;55898;52.196;4.420;2022-08-25T01:59:40;15.33;;;15.33;;
68864;SDS011;55898;52.196;4.420;2022-08-25T02:02:06;15.04;;;15.04;;
68864;SDS011;55898;52.196;4.420;2022-08-25T02:04:32;15.62;;;15.62;;
68864;SDS011;55898;52.196;4.420;2022-08-25T02:06:58;14.01;;;14.01;;
68864;SDS011;55898;52.196;4.420;2022-08-25T02:09:24;13.88;;;13.88;;
68864;SDS011;55898;52.196;4.420;2022-08-25T02:11:50;14.92;;;14.92;;
68864;SDS011;55898;52.196;4.420;2022-08-25T02:14:16;15.08;;;15.08;;
68864;SDS011;55898;52.196;4.420;2022-08-25T02:16:45;14.12;;;14.12;;
68864;SDS011;55898;52.196;4.420;2022-08-25T02:19:13;14.71;;;14.71;;
68864;SDS011;55898;52.196;4.420;2022-08-25T02:21:39;16.34;;;16.34;;
68864;SDS011;55898;52.196;4.420;2022-08-25T02:24:06;16.53;;;16.53;;
68864;SDS011;55898;52.196;4.420;2022-08-25T02:26:32;15.20;;;15.20;;
68864;SDS011;55898;52.196;4.420;2022-08-25T02:28:58;15.65;;;15.65;;
68864;SDS011;55898;52.196;4.420;2022-08-25T02:31:25;15.60;;;15.60;;
68864;SDS011;55898;52.196;4.420;2022-08-25T02:33:51;14.89;;;14.89;;
68864;SDS011;55898;52.196;4.420;2022-08-25T02:36:18;16.42;;;16.42;;
68864;SDS011;55898;52.196;4.420;2022-08-25T02:38:44;15.00;;;15.00;;
68864;SDS011;55898;52.196;4.420;2022-08-25T02:41:11;15.40;;;15.40;;
68864;SDS011;55898;52.196;4.420;2022-08-25T02:43:39;15.64;;;15.64;;
68864;SDS011;55898;52.196;4.420;2022-08-25T02:46:07;15.67;;;15.67;;
68864;SDS011;55898;52.196;4.420;2022-08-25T02:48:33;16.25;;;16.25;;
68864;SDS011;55898;52.196;4.420;2022-08-25T02:51:00;16.11;;;16.11;;
68864;SDS011;55898;52.196;4.420;2022-08-25T02:53:27;15.22;;;15.22;;
68864;SDS011;55898;52.196;4.420;2022-08-25T02:55:54;14.63;;;14.62;;
68864;SDS011;55898;52.196;4.420;2022-08-25T02:58:20;14.85;;;14.85;;
68864;SDS011;55898;52.196;4.420;2022-08-25T03:00:46;15.10;;;15.10;;
68864;SDS011;55898;52.196;4.420;2022-08-25T03:03:13;15.22;;;15.22;;
68864;SDS011;55898;52.196;4.420;2022-08-25T03:05:38;15.26;;;15.26;;
68864;SDS011;55898;52.196;4.420;2022-08-25T03:08:05;15.28;;;15.28;;
68864;SDS011;55898;52.196;4.420;2022-08-25T03:10:31;15.23;;;15.23;;
68864;SDS011;55898;52.196;4.420;2022-08-25T03:12:57;15.16;;;15.16;;
68864;SDS011;55898;52.196;4.420;2022-08-25T03:15:23;14.27;;;14.27;;
68864;SDS011;55898;52.196;4.420;2022-08-25T03:17:52;14.49;;;14.49;;
68864;SDS011;55898;52.196;4.420;2022-08-25T03:20:20;13.40;;;13.40;;
68864;SDS011;55898;52.196;4.420;2022-08-25T03:22:47;13.99;;;13.99;;
68864;SDS011;55898;52.196;4.420;2022-08-25T03:25:13;14.86;;;14.86;;
68864;SDS011;55898;52.196;4.420;2022-08-25T03:27:57;14.34;;;14.34;;
68864;SDS011;55898;52.196;4.420;2022-08-25T03:30:23;13.85;;;13.85;;
68864;SDS011;55898;52.196;4.420;2022-08-25T03:32:50;14.14;;;14.14;;
68864;SDS011;55898;52.196;4.420;2022-08-25T03:35:16;14.24;;;14.24;;
68864;SDS011;55898;52.196;4.420;2022-08-25T03:37:42;14.42;;;14.42;;
68864;SDS011;55898;52.196;4.420;2022-08-25T03:40:09;13.99;;;13.99;;
68864;SDS011;55898;52.196;4.420;2022-08-25T03:42:41;14.46;;;14.46;;
68864;SDS011;55898;52.196;4.420;2022-08-25T03:45:08;14.11;;;14.11;;
68864;SDS011;55898;52.196;4.420;2022-08-25T03:47:36;13.94;;;13.94;;
68864;SDS011;55898;52.196;4.420;2022-08-25T03:50:03;13.76;;;13.76;;
68864;SDS011;55898;52.196;4.420;2022-08-25T03:52:30;14.41;;;14.41;;
68864;SDS011;55898;52.196;4.420;2022-08-25T03:54:55;13.75;;;13.75;;
68864;SDS011;55898;52.196;4.420;2022-08-25T03:57:21;12.48;;;12.48;;
68864;SDS011;55898;52.196;4.420;2022-08-25T03:59:46;12.08;;;12.08;;
68864;SDS011;55898;52.196;4.420;2022-08-25T04:02:12;12.00;;;12.00;;
68864;SDS011;55898;52.196;4.420;2022-08-25T04:04:39;11.93;;;11.93;;
68864;SDS011;55898;52.196;4.420;2022-08-25T04:07:04;12.64;;;12.64;;
68864;SDS011;55898;52.196;4.420;2022-08-25T04:09:30;12.05;;;12.05;;
68864;SDS011;55898;52.196;4.420;2022-08-25T04:11:56;11.44;;;11.44;;
68864;SDS011;55898;52.196;4.420;2022-08-25T04:14:21;11.51;;;11.51;;
68864;SDS011;55898;52.196;4.420;2022-08-25T04:16:47;10.72;;;10.72;;
68864;SDS011;55898;52.196;4.420;2022-08-25T04:19:14;11.00;;;11.00;;
68864;SDS011;55898;52.196;4.420;2022-08-25T04:21:40;10.48;;;10.48;;
68864;SDS011;55898;52.196;4.420;2022-08-25T04:24:06;10.48;;;10.48;;
68864;SDS011;55898;52.196;4.420;2022-08-25T04:26:35;9.86;;;9.86;;
68864;SDS011;55898;52.196;4.420;2022-08-25T04:29:05;10.46;;;10.46;;
68864;SDS011;55898;52.196;4.420;2022-08-25T04:31:33;10.02;;;10.02;;
68864;SDS011;55898;52.196;4.420;2022-08-25T04:34:00;10.12;;;10.12;;
68864;SDS011;55898;52.196;4.420;2022-08-25T04:36:27;10.21;;;10.21;;
68864;SDS011;55898;52.196;4.420;2022-08-25T04:38:53;10.65;;;10.65;;
68864;SDS011;55898;52.196;4.420;2022-08-25T04:41:19;10.07;;;10.07;;
68864;SDS011;55898;52.196;4.420;2022-08-25T04:43:46;9.58;;;9.58;;
68864;SDS011;55898;52.196;4.420;2022-08-25T04:46:13;10.08;;;10.08;;
68864;SDS011;55898;52.196;4.420;2022-08-25T04:48:47;10.00;;;10.00;;
68864;SDS011;55898;52.196;4.420;2022-08-25T04:51:17;10.27;;;10.27;;
68864;SDS011;55898;52.196;4.420;2022-08-25T04:53:45;10.66;;;10.66;;
68864;SDS011;55898;52.196;4.420;2022-08-25T04:56:12;10.26;;;10.26;;
68864;SDS011;55898;52.196;4.420;2022-08-25T04:58:40;10.13;;;10.13;;
68864;SDS011;55898;52.196;4.420;2022-08-25T05:01:09;10.56;;;10.56;;
68864;SDS011;55898;52.196;4.420;2022-08-25T05:03:40;9.70;;;9.70;;
68864;SDS011;55898;52.196;4.420;2022-08-25T05:06:06;10.31;;;10.31;;
68864;SDS011;55898;52.196;4.420;2022-08-25T05:08:31;9.92;;;9.92;;
68864;SDS011;55898;52.196;4.420;2022-08-25T05:10:58;9.78;;;9.78;;
68864;SDS011;55898;52.196;4.420;2022-08-25T05:13:28;9.86;;;9.86;;
68864;SDS011;55898;52.196;4.420;2022-08-25T05:15:54;9.47;;;9.47;;
68864;SDS011;55898;52.196;4.420;2022-08-25T05:18:22;10.13;;;10.13;;
68864;SDS011;55898;52.196;4.420;2022-08-25T05:20:50;9.56;;;9.56;;
68864;SDS011;55898;52.196;4.420;2022-08-25T05:23:18;10.39;;;10.39;;
68864;SDS011;55898;52.196;4.420;2022-08-25T05:25:45;10.04;;;10.04;;
68864;SDS011;55898;52.196;4.420;2022-08-25T05:28:11;10.48;;;10.48;;
68864;SDS011;55898;52.196;4.420;2022-08-25T05:30:40;10.38;;;10.38;;
68864;SDS011;55898;52.196;4.420;2022-08-25T05:33:07;10.30;;;10.30;;
68864;SDS011;55898;52.196;4.420;2022-08-25T05:35:34;10.25;;;10.25;;
68864;SDS011;55898;52.196;4.420;2022-08-25T05:38:00;10.03;;;10.03;;
68864;SDS011;55898;52.196;4.420;2022-08-25T05:40:28;9.76;;;9.76;;
68864;SDS011;55898;52.196;4.420;2022-08-25T05:42:54;10.18;;;10.18;;
68864;SDS011;55898;52.196;4.420;2022-08-25T05:45:20;10.56;;;10.56;;
68864;SDS011;55898;52.196;4.420;2022-08-25T05:47:45;10.17;;;10.17;;
68864;SDS011;55898;52.196;4.420;2022-08-25T05:50:11;10.46;;;10.46;;
68864;SDS011;55898;52.196;4.420;2022-08-25T05:52:37;10.20;;;10.20;;
68864;SDS011;55898;52.196;4.420;2022-08-25T05:55:03;9.54;;;9.54;;
68864;SDS011;55898;52.196;4.420;2022-08-25T05:57:29;10.27;;;10.27;;
68864;SDS011;55898;52.196;4.420;2022-08-25T05:59:54;10.46;;;10.46;;
68864;SDS011;55898;52.196;4.420;2022-08-25T06:02:20;9.83;;;9.83;;
68864;SDS011;55898;52.196;4.420;2022-08-25T06:05:04;9.93;;;9.93;;
68864;SDS011;55898;52.196;4.420;2022-08-25T06:07:30;10.37;;;10.37;;
68864;SDS011;55898;52.196;4.420;2022-08-25T06:09:55;10.22;;;10.22;;
68864;SDS011;55898;52.196;4.420;2022-08-25T06:12:21;9.92;;;9.92;;
68864;SDS011;55898;52.196;4.420;2022-08-25T06:14:47;10.12;;;10.12;;
68864;SDS011;55898;52.196;4.420;2022-08-25T06:17:13;10.95;;;10.95;;
68864;SDS011;55898;52.196;4.420;2022-08-25T06:19:39;10.24;;;10.24;;
68864;SDS011;55898;52.196;4.420;2022-08-25T06:22:05;10.00;;;10.00;;
68864;SDS011;55898;52.196;4.420;2022-08-25T06:24:31;10.02;;;10.02;;
68864;SDS011;55898;52.196;4.420;2022-08-25T06:26:57;9.94;;;9.94;;
68864;SDS011;55898;52.196;4.420;2022-08-25T06:29:24;10.43;;;10.43;;
68864;SDS011;55898;52.196;4.420;2022-08-25T06:31:51;11.06;;;11.06;;
68864;SDS011;55898;52.196;4.420;2022-08-25T06:34:16;10.79;;;10.79;;
68864;SDS011;55898;52.196;4.420;2022-08-25T06:36:43;10.69;;;10.69;;
68864;SDS011;55898;52.196;4.420;2022-08-25T06:39:09;10.58;;;10.58;;
68864;SDS011;55898;52.196;4.420;2022-08-25T06:41:35;10.48;;;10.48;;
68864;SDS011;55898;52.196;4.420;2022-08-25T06:44:01;10.39;;;10.39;;
68864;SDS011;55898;52.196;4.420;2022-08-25T06:46:27;9.47;;;9.47;;
68864;SDS011;55898;52.196;4.420;2022-08-25T06:48:53;9.25;;;9.25;;
68864;SDS011;55898;52.196;4.420;2022-08-25T06:51:21;9.66;;;9.66;;
68864;SDS011;55898;52.196;4.420;2022-08-25T06:53:48;9.68;;;9.68;;
68864;SDS011;55898;52.196;4.420;2022-08-25T06:56:17;9.69;;;9.69;;
68864;SDS011;55898;52.196;4.420;2022-08-25T06:58:45;9.57;;;9.57;;
68864;SDS011;55898;52.196;4.420;2022-08-25T07:01:16;8.32;;;8.32;;
68864;SDS011;55898;52.196;4.420;2022-08-25T07:03:48;8.85;;;8.85;;
68864;SDS011;55898;52.196;4.420;2022-08-25T07:06:15;9.31;;;9.31;;
68864;SDS011;55898;52.196;4.420;2022-08-25T07:08:45;9.34;;;9.34;;
68864;SDS011;55898;52.196;4.420;2022-08-25T07:11:12;9.32;;;9.32;;
68864;SDS011;55898;52.196;4.420;2022-08-25T07:13:39;8.71;;;8.71;;
68864;SDS011;55898;52.196;4.420;2022-08-25T07:16:05;8.49;;;8.49;;
68864;SDS011;55898;52.196;4.420;2022-08-25T07:18:31;9.08;;;9.08;;
68864;SDS011;55898;52.196;4.420;2022-08-25T07:20:58;8.19;;;8.19;;
68864;SDS011;55898;52.196;4.420;2022-08-25T07:23:24;8.33;;;8.33;;
68864;SDS011;55898;52.196;4.420;2022-08-25T07:25:50;8.17;;;8.17;;
68864;SDS011;55898;52.196;4.420;2022-08-25T07:28:17;8.21;;;8.21;;
68864;SDS011;55898;52.196;4.420;2022-08-25T07:30:43;7.96;;;7.96;;
68864;SDS011;55898;52.196;4.420;2022-08-25T07:33:09;8.58;;;8.58;;
68864;SDS011;55898;52.196;4.420;2022-08-25T07:35:36;8.73;;;8.73;;
68864;SDS011;55898;52.196;4.420;2022-08-25T07:38:02;8.21;;;8.21;;
68864;SDS011;55898;52.196;4.420;2022-08-25T07:40:31;7.40;;;7.40;;
68864;SDS011;55898;52.196;4.420;2022-08-25T07:43:00;7.65;;;7.65;;
68864;SDS011;55898;52.196;4.420;2022-08-25T07:45:29;7.38;;;7.38;;
68864;SDS011;55898;52.196;4.420;2022-08-25T07:50:23;7.41;;;7.41;;
68864;SDS011;55898;52.196;4.420;2022-08-25T07:52:49;7.04;;;7.04;;
68864;SDS011;55898;52.196;4.420;2022-08-25T07:55:15;7.17;;;7.17;;
68864;SDS011;55898;52.196;4.420;2022-08-25T07:57:41;6.86;;;6.86;;
68864;SDS011;55898;52.196;4.420;2022-08-25T08:00:08;7.38;;;7.38;;
68864;SDS011;55898;52.196;4.420;2022-08-25T08:02:38;6.63;;;6.63;;
68864;SDS011;55898;52.196;4.420;2022-08-25T08:05:04;6.59;;;6.59;;
68864;SDS011;55898;52.196;4.420;2022-08-25T08:07:30;7.11;;;7.11;;
68864;SDS011;55898;52.196;4.420;2022-08-25T08:09:56;6.45;;;6.45;;
68864;SDS011;55898;52.196;4.420;2022-08-25T08:12:23;6.41;;;6.41;;
68864;SDS011;55898;52.196;4.420;2022-08-25T08:14:49;6.45;;;6.45;;
68864;SDS011;55898;52.196;4.420;2022-08-25T08:17:16;6.99;;;6.99;;
68864;SDS011;55898;52.196;4.420;2022-08-25T08:19:42;6.27;;;6.27;;
68864;SDS011;55898;52.196;4.420;2022-08-25T08:22:08;6.11;;;6.11;;
68864;SDS011;55898;52.196;4.420;2022-08-25T08:24:35;6.36;;;6.36;;
68864;SDS011;55898;52.196;4.420;2022-08-25T08:27:07;7.16;;;7.16;;
68864;SDS011;55898;52.196;4.420;2022-08-25T08:29:33;6.73;;;6.73;;
68864;SDS011;55898;52.196;4.420;2022-08-25T08:31:59;7.02;;;7.02;;
68864;SDS011;55898;52.196;4.420;2022-08-25T08:34:26;7.24;;;7.24;;
68864;SDS011;55898;52.196;4.420;2022-08-25T08:36:51;7.41;;;7.41;;
68864;SDS011;55898;52.196;4.420;2022-08-25T08:39:17;7.21;;;7.21;;
68864;SDS011;55898;52.196;4.420;2022-08-25T08:41:53;7.06;;;7.06;;
68864;SDS011;55898;52.196;4.420;2022-08-25T08:52:41;6.57;;;6.57;;
68864;SDS011;55898;52.196;4.420;2022-08-25T08:55:16;6.22;;;6.22;;
68864;SDS011;55898;52.196;4.420;2022-08-25T08:57:52;6.18;;;6.18;;
68864;SDS011;55898;52.196;4.420;2022-08-25T09:00:22;5.97;;;5.97;;
68864;SDS011;55898;52.196;4.420;2022-08-25T09:02:52;6.10;;;6.10;;
68864;SDS011;55898;52.196;4.420;2022-08-25T09:05:40;5.56;;;5.56;;
68864;SDS011;55898;52.196;4.420;2022-08-25T09:08:11;5.50;;;5.50;;
68864;SDS011;55898;52.196;4.420;2022-08-25T09:10:52;4.89;;;4.89;;
68864;SDS011;55898;52.196;4.420;2022-08-25T09:13:35;5.17;;;5.17;;
68864;SDS011;55898;52.196;4.420;2022-08-25T09:16:14;4.90;;;4.90;;
68864;SDS011;55898;52.196;4.420;2022-08-25T09:27:24;4.61;;;4.61;;
68864;SDS011;55898;52.196;4.420;2022-08-25T09:30:02;4.32;;;4.32;;
68864;SDS011;55898;52.196;4.420;2022-08-25T09:32:33;4.33;;;4.33;;
68864;SDS011;55898;52.196;4.420;2022-08-25T09:35:08;4.35;;;4.35;;
68864;SDS011;55898;52.196;4.420;2022-08-25T09:38:04;4.28;;;4.28;;
68864;SDS011;55898;52.196;4.420;2022-08-25T09:40:33;3.97;;;3.97;;
68864;SDS011;55898;52.196;4.420;2022-08-25T09:43:03;4.10;;;4.10;;
68864;SDS011;55898;52.196;4.420;2022-08-25T09:45:42;4.01;;;4.01;;
68864;SDS011;55898;52.196;4.420;2022-08-25T09:48:22;4.01;;;4.01;;
68864;SDS011;55898;52.196;4.420;2022-08-25T09:50:49;3.75;;;3.75;;
68864;SDS011;55898;52.196;4.420;2022-08-25T09:53:18;3.67;;;3.67;;
68864;SDS011;55898;52.196;4.420;2022-08-25T09:55:45;3.70;;;3.70;;
68864;SDS011;55898;52.196;4.420;2022-08-25T09:58:22;3.45;;;3.45;;
68864;SDS011;55898;52.196;4.420;2022-08-25T10:00:59;3.55;;;3.55;;
68864;SDS011;55898;52.196;4.420;2022-08-25T10:03:29;3.50;;;3.50;;
68864;SDS011;55898;52.196;4.420;2022-08-25T10:08:29;3.51;;;3.51;;
68864;SDS011;55898;52.196;4.420;2022-08-25T10:10:56;3.57;;;3.57;;
68864;SDS011;55898;52.196;4.420;2022-08-25T10:13:40;3.68;;;3.68;;
68864;SDS011;55898;52.196;4.420;2022-08-25T10:16:21;3.59;;;3.59;;
68864;SDS011;55898;52.196;4.420;2022-08-25T10:18:59;3.44;;;3.44;;
68864;SDS011;55898;52.196;4.420;2022-08-25T10:21:29;3.43;;;3.43;;
68864;SDS011;55898;52.196;4.420;2022-08-25T10:23:55;3.39;;;3.39;;
68864;SDS011;55898;52.196;4.420;2022-08-25T10:35:16;3.63;;;3.63;;
68864;SDS011;55898;52.196;4.420;2022-08-25T10:40:45;3.68;;;3.68;;
68864;SDS011;55898;52.196;4.420;2022-08-25T10:46:22;3.37;;;3.37;;
68864;SDS011;55898;52.196;4.420;2022-08-25T10:51:38;3.60;;;3.60;;
68864;SDS011;55898;52.196;4.420;2022-08-25T10:56:59;3.36;;;3.36;;
68864;SDS011;55898;52.196;4.420;2022-08-25T11:04:47;3.45;;;3.45;;
68864;SDS011;55898;52.196;4.420;2022-08-25T11:07:36;3.19;;;3.19;;
68864;SDS011;55898;52.196;4.420;2022-08-25T11:10:14;3.37;;;3.37;;
68864;SDS011;55898;52.196;4.420;2022-08-25T11:12:49;3.31;;;3.31;;
68864;SDS011;55898;52.196;4.420;2022-08-25T11:15:30;3.49;;;3.49;;
68864;SDS011;55898;52.196;4.420;2022-08-25T11:18:08;3.19;;;3.19;;
68864;SDS011;55898;52.196;4.420;2022-08-25T11:20:43;3.24;;;3.24;;
68864;SDS011;55898;52.196;4.420;2022-08-25T11:23:29;3.39;;;3.39;;
68864;SDS011;55898;52.196;4.420;2022-08-25T11:26:11;3.23;;;3.23;;
68864;SDS011;55898;52.196;4.420;2022-08-25T11:28:49;2.84;;;2.84;;
68864;SDS011;55898;52.196;4.420;2022-08-25T11:31:20;3.03;;;3.03;;
68864;SDS011;55898;52.196;4.420;2022-08-25T11:33:49;2.74;;;2.74;;
68864;SDS011;55898;52.196;4.420;2022-08-25T11:44:18;3.38;;;3.38;;
68864;SDS011;55898;52.196;4.420;2022-08-25T11:51:55;3.37;;;3.37;;
68864;SDS011;55898;52.196;4.420;2022-08-25T11:54:35;3.26;;;3.26;;
68864;SDS011;55898;52.196;4.420;2022-08-25T11:57:17;3.29;;;3.29;;
68864;SDS011;55898;52.196;4.420;2022-08-25T12:05:00;3.41;;;3.41;;
68864;SDS011;55898;52.196;4.420;2022-08-25T12:07:28;3.71;;;3.71;;
68864;SDS011;55898;52.196;4.420;2022-08-25T12:12:28;3.67;;;3.67;;
68864;SDS011;55898;52.196;4.420;2022-08-25T12:14:54;3.84;;;3.84;;
68864;SDS011;55898;52.196;4.420;2022-08-25T12:17:21;3.86;;;3.86;;
68864;SDS011;55898;52.196;4.420;2022-08-25T12:19:52;4.40;;;4.40;;
68864;SDS011;55898;52.196;4.420;2022-08-25T12:24:48;4.63;;;4.63;;
68864;SDS011;55898;52.196;4.420;2022-08-25T12:29:46;4.88;;;4.88;;
68864;SDS011;55898;52.196;4.420;2022-08-25T12:37:16;5.42;;;5.42;;
68864;SDS011;55898;52.196;4.420;2022-08-25T12:42:21;6.37;;;6.37;;
68864;SDS011;55898;52.196;4.420;2022-08-25T12:44:48;7.85;;;7.85;;
68864;SDS011;55898;52.196;4.420;2022-08-25T12:47:32;8.75;;;8.75;;
68864;SDS011;55898;52.196;4.420;2022-08-25T12:52:42;7.99;;;7.99;;
68864;SDS011;55898;52.196;4.420;2022-08-25T12:55:08;7.89;;;7.89;;
68864;SDS011;55898;52.196;4.420;2022-08-25T12:57:40;11.41;;;11.41;;
68864;SDS011;55898;52.196;4.420;2022-08-25T13:00:19;10.85;;;10.85;;
68864;SDS011;55898;52.196;4.420;2022-08-25T13:10:24;12.70;;;12.70;;
68864;SDS011;55898;52.196;4.420;2022-08-25T13:20:43;13.09;;;13.09;;
68864;SDS011;55898;52.196;4.420;2022-08-25T13:23:09;10.98;;;10.98;;
68864;SDS011;55898;52.196;4.420;2022-08-25T13:25:35;11.54;;;11.54;;
68864;SDS011;55898;52.196;4.420;2022-08-25T13:28:10;13.27;;;13.27;;
68864;SDS011;55898;52.196;4.420;2022-08-25T13:30:44;11.93;;;11.93;;
68864;SDS011;55898;52.196;4.420;2022-08-25T13:33:21;12.79;;;12.79;;
68864;SDS011;55898;52.196;4.420;2022-08-25T13:35:49;13.12;;;13.12;;
68864;SDS011;55898;52.196;4.420;2022-08-25T13:38:35;13.94;;;13.94;;
68864;SDS011;55898;52.196;4.420;2022-08-25T13:41:02;13.88;;;13.88;;
68864;SDS011;55898;52.196;4.420;2022-08-25T13:43:28;12.64;;;12.64;;
68864;SDS011;55898;52.196;4.420;2022-08-25T13:45:53;14.27;;;14.27;;
68864;SDS011;55898;52.196;4.420;2022-08-25T13:48:35;15.13;;;15.13;;
68864;SDS011;55898;52.196;4.420;2022-08-25T13:51:20;14.26;;;14.26;;
68864;SDS011;55898;52.196;4.420;2022-08-25T13:53:48;13.51;;;13.51;;
68864;SDS011;55898;52.196;4.420;2022-08-25T13:56:21;14.91;;;14.91;;
68864;SDS011;55898;52.196;4.420;2022-08-25T13:58:48;17.34;;;17.34;;
68864;SDS011;55898;52.196;4.420;2022-08-25T14:01:24;15.94;;;15.94;;
68864;SDS011;55898;52.196;4.420;2022-08-25T14:03:51;18.37;;;18.37;;
68864;SDS011;55898;52.196;4.420;2022-08-25T14:06:18;19.63;;;19.63;;
68864;SDS011;55898;52.196;4.420;2022-08-25T14:08:57;18.88;;;18.88;;
68864;SDS011;55898;52.196;4.420;2022-08-25T14:13:59;17.64;;;17.64;;
68864;SDS011;55898;52.196;4.420;2022-08-25T14:16:25;15.77;;;15.77;;
68864;SDS011;55898;52.196;4.420;2022-08-25T14:18:52;17.44;;;17.44;;
68864;SDS011;55898;52.196;4.420;2022-08-25T14:21:21;18.68;;;18.68;;
68864;SDS011;55898;52.196;4.420;2022-08-25T14:23:49;18.46;;;18.46;;
68864;SDS011;55898;52.196;4.420;2022-08-25T14:26:16;19.24;;;19.24;;
68864;SDS011;55898;52.196;4.420;2022-08-25T14:28:41;18.41;;;18.41;;
68864;SDS011;55898;52.196;4.420;2022-08-25T14:31:07;17.83;;;17.83;;
68864;SDS011;55898;52.196;4.420;2022-08-25T14:33:38;18.56;;;18.56;;
68864;SDS011;55898;52.196;4.420;2022-08-25T14:36:06;20.17;;;20.17;;
68864;SDS011;55898;52.196;4.420;2022-08-25T14:38:32;18.01;;;18.01;;
68864;SDS011;55898;52.196;4.420;2022-08-25T14:40:57;20.69;;;20.69;;
68864;SDS011;55898;52.196;4.420;2022-08-25T14:43:23;21.74;;;21.74;;
68864;SDS011;55898;52.196;4.420;2022-08-25T14:45:48;21.81;;;21.81;;
68864;SDS011;55898;52.196;4.420;2022-08-25T14:48:25;22.97;;;22.97;;
68864;SDS011;55898;52.196;4.420;2022-08-25T14:50:52;22.89;;;22.89;;
68864;SDS011;55898;52.196;4.420;2022-08-25T14:53:19;22.77;;;22.77;;
68864;SDS011;55898;52.196;4.420;2022-08-25T14:55:44;21.27;;;21.27;;
68864;SDS011;55898;52.196;4.420;2022-08-25T14:58:10;21.54;;;21.54;;
68864;SDS011;55898;52.196;4.420;2022-08-25T15:00:43;19.83;;;19.83;;
68864;SDS011;55898;52.196;4.420;2022-08-25T15:03:12;21.64;;;21.64;;
68864;SDS011;55898;52.196;4.420;2022-08-25T15:05:40;21.25;;;21.25;;
68864;SDS011;55898;52.196;4.420;2022-08-25T15:08:06;22.62;;;22.62;;
68864;SDS011;55898;52.196;4.420;2022-08-25T15:10:50;21.93;;;21.93;;
68864;SDS011;55898;52.196;4.420;2022-08-25T15:13:15;21.26;;;21.26;;
68864;SDS011;55898;52.196;4.420;2022-08-25T15:15:42;21.88;;;21.88;;
68864;SDS011;55898;52.196;4.420;2022-08-25T15:18:08;20.49;;;20.49;;
68864;SDS011;55898;52.196;4.420;2022-08-25T15:20:34;21.48;;;21.48;;
68864;SDS011;55898;52.196;4.420;2022-08-25T15:23:00;21.48;;;21.48;;
68864;SDS011;55898;52.196;4.420;2022-08-25T15:25:25;19.74;;;19.74;;
68864;SDS011;55898;52.196;4.420;2022-08-25T15:27:51;20.78;;;20.78;;
68864;SDS011;55898;52.196;4.420;2022-08-25T15:30:16;19.38;;;19.38;;
68864;SDS011;55898;52.196;4.420;2022-08-25T15:32:42;19.35;;;19.35;;
68864;SDS011;55898;52.196;4.420;2022-08-25T15:35:07;18.15;;;18.15;;
68864;SDS011;55898;52.196;4.420;2022-08-25T15:37:33;18.01;;;18.01;;
68864;SDS011;55898;52.196;4.420;2022-08-25T15:40:00;18.29;;;18.29;;
68864;SDS011;55898;52.196;4.420;2022-08-25T15:42:26;17.17;;;17.17;;
68864;SDS011;55898;52.196;4.420;2022-08-25T15:44:51;16.85;;;16.85;;
68864;SDS011;55898;52.196;4.420;2022-08-25T15:47:17;17.14;;;17.14;;
68864;SDS011;55898;52.196;4.420;2022-08-25T15:49:42;17.51;;;17.51;;
68864;SDS011;55898;52.196;4.420;2022-08-25T15:52:08;17.65;;;17.65;;
68864;SDS011;55898;52.196;4.420;2022-08-25T15:54:34;19.59;;;19.59;;
68864;SDS011;55898;52.196;4.420;2022-08-25T15:56:59;18.95;;;18.95;;
68864;SDS011;55898;52.196;4.420;2022-08-25T15:59:26;19.45;;;19.45;;
68864;SDS011;55898;52.196;4.420;2022-08-25T16:01:52;18.83;;;18.83;;
68864;SDS011;55898;52.196;4.420;2022-08-25T16:04:19;17.74;;;17.74;;
68864;SDS011;55898;52.196;4.420;2022-08-25T16:06:45;18.52;;;18.52;;
68864;SDS011;55898;52.196;4.420;2022-08-25T16:09:10;17.23;;;17.23;;
68864;SDS011;55898;52.196;4.420;2022-08-25T16:11:36;18.96;;;18.96;;
68864;SDS011;55898;52.196;4.420;2022-08-25T16:14:03;17.81;;;17.81;;
68864;SDS011;55898;52.196;4.420;2022-08-25T16:16:29;18.49;;;18.49;;
68864;SDS011;55898;52.196;4.420;2022-08-25T16:18:55;17.48;;;17.48;;
68864;SDS011;55898;52.196;4.420;2022-08-25T16:21:23;18.35;;;18.35;;
68864;SDS011;55898;52.196;4.420;2022-08-25T16:23:51;17.81;;;17.81;;
68864;SDS011;55898;52.196;4.420;2022-08-25T16:26:17;17.11;;;17.11;;
68864;SDS011;55898;52.196;4.420;2022-08-25T16:28:42;14.33;;;14.33;;
68864;SDS011;55898;52.196;4.420;2022-08-25T16:31:09;13.70;;;13.70;;